createdAt,value
2022-08-01T00:01:47.086Z,19.36
2022-08-01T00:04:30.138Z,19.27
2022-08-01T00:07:13.288Z,19.22
2022-08-01T00:09:56.292Z,19.20
2022-08-01T00:12:39.478Z,19.16
2022-08-01T00:15:23.894Z,19.13
2022-08-01T00:18:07.041Z,19.12
2022-08-01T00:20:50.150Z,19.10
2022-08-01T00:23:33.500Z,19.07
2022-08-01T00:26:16.994Z,19.07
2022-08-01T00:29:00.093Z,19.06
2022-08-01T00:31:44.508Z,19.02
2022-08-01T00:34:27.583Z,19.00
2022-08-01T00:37:10.910Z,19.00
2022-08-01T00:39:59.159Z,19.01
2022-08-01T00:42:43.760Z,19.02
2022-08-01T00:45:26.977Z,19.01
2022-08-01T00:48:12.405Z,19.01
2022-08-01T00:50:55.245Z,19.00
2022-08-01T00:53:51.340Z,19.00
2022-08-01T00:56:35.692Z,19.01
2022-08-01T00:59:20.527Z,19.01
2022-08-01T01:02:03.835Z,19.02
2022-08-01T01:04:58.957Z,19.02
2022-08-01T01:07:49.607Z,19.02
2022-08-01T01:10:38.939Z,19.04
2022-08-01T01:13:31.306Z,19.02
2022-08-01T01:16:17.422Z,19.02
2022-08-01T01:19:04.773Z,18.99
2022-08-01T01:22:12.196Z,18.99
2022-08-01T01:25:10.112Z,18.96
2022-08-01T01:28:03.737Z,18.97
2022-08-01T01:30:53.224Z,18.95
2022-08-01T01:33:47.097Z,18.94
2022-08-01T01:36:32.854Z,18.91
2022-08-01T01:39:17.361Z,18.89
2022-08-01T01:42:02.272Z,18.87
2022-08-01T01:44:46.794Z,18.82
2022-08-01T01:47:33.068Z,18.80
2022-08-01T01:50:17.083Z,18.78
2022-08-01T01:53:01.415Z,18.75
2022-08-01T01:55:49.505Z,18.73
2022-08-01T01:58:35.165Z,18.72
2022-08-01T02:01:58.198Z,18.71
2022-08-01T02:04:25.555Z,18.70
2022-08-01T02:07:10.909Z,18.68
2022-08-01T02:09:56.135Z,18.69
2022-08-01T02:12:43.646Z,18.69
2022-08-01T02:15:28.350Z,18.67
2022-08-01T02:18:13.775Z,18.67
2022-08-01T02:21:01.274Z,18.67
2022-08-01T02:23:44.626Z,18.67
2022-08-01T02:26:29.210Z,18.67
2022-08-01T02:29:17.243Z,18.65
2022-08-01T02:32:01.878Z,18.64
2022-08-01T02:34:49.071Z,18.63
2022-08-01T02:37:36.753Z,18.63
2022-08-01T02:40:20.779Z,18.60
2022-08-01T02:43:05.757Z,18.58
2022-08-01T02:45:54.489Z,18.55
2022-08-01T02:48:39.863Z,18.53
2022-08-01T02:51:27.179Z,18.51
2022-08-01T02:54:13.382Z,18.49
2022-08-01T02:56:58.878Z,18.50
2022-08-01T02:59:44.990Z,18.48
2022-08-01T03:02:30.726Z,18.48
2022-08-01T03:05:14.802Z,18.47
2022-08-01T03:08:02.543Z,18.46
2022-08-01T03:10:49.411Z,18.42
2022-08-01T03:13:35.010Z,18.40
2022-08-01T03:16:19.969Z,18.40
2022-08-01T03:19:04.443Z,18.34
2022-08-01T03:21:50.523Z,18.30
2022-08-01T03:24:34.234Z,18.28
2022-08-01T03:27:20.320Z,18.27
2022-08-01T03:30:05.941Z,18.27
2022-08-01T03:32:49.065Z,18.27
2022-08-01T03:35:44.751Z,18.28
2022-08-01T03:38:31.606Z,18.26
2022-08-01T03:41:22.081Z,18.24
2022-08-01T03:44:12.365Z,18.25
2022-08-01T03:47:00.271Z,18.25
2022-08-01T03:49:45.901Z,18.26
2022-08-01T03:52:31.499Z,18.24
2022-08-01T03:55:17.938Z,18.18
2022-08-01T03:58:05.114Z,18.17
2022-08-01T04:00:51.567Z,18.17
2022-08-01T04:03:41.394Z,18.16
2022-08-01T04:06:25.066Z,18.16
2022-08-01T04:09:13.262Z,18.13
2022-08-01T04:11:56.725Z,18.13
2022-08-01T04:14:39.721Z,18.10
2022-08-01T04:17:24.093Z,18.09
2022-08-01T04:20:08.185Z,18.12
2022-08-01T04:22:51.338Z,18.13
2022-08-01T04:25:37.145Z,18.14
2022-08-01T04:28:21.049Z,18.15
2022-08-01T04:31:07.460Z,18.14
2022-08-01T04:33:54.496Z,18.14
2022-08-01T04:36:42.888Z,18.16
2022-08-01T04:39:29.058Z,18.15
2022-08-01T04:42:13.903Z,18.17
2022-08-01T04:44:56.728Z,18.16
2022-08-01T04:47:40.644Z,18.18
2022-08-01T04:50:25.453Z,18.17
2022-08-01T04:53:13.967Z,18.14
2022-08-01T04:55:57.634Z,18.14
2022-08-01T04:58:41.852Z,18.13
2022-08-01T05:01:24.946Z,18.12
2022-08-01T05:04:07.969Z,18.10
2022-08-01T05:06:52.376Z,18.08
2022-08-01T05:09:36.918Z,18.11
2022-08-01T05:12:20.063Z,18.13
2022-08-01T05:15:03.668Z,18.18
2022-08-01T05:17:47.839Z,18.20
2022-08-01T05:20:30.862Z,18.26
2022-08-01T05:23:30.990Z,18.33
2022-08-01T05:26:18.187Z,18.40
2022-08-01T05:29:01.610Z,18.47
2022-08-01T05:31:44.608Z,18.51
2022-08-01T05:34:30.000Z,18.59
2022-08-01T05:37:13.013Z,18.66
2022-08-01T05:39:57.397Z,18.71
2022-08-01T05:42:40.355Z,18.74
2022-08-01T05:45:23.392Z,18.78
2022-08-01T05:48:06.842Z,18.82
2022-08-01T05:50:50.691Z,18.86
2022-08-01T05:53:35.332Z,18.89
2022-08-01T05:56:19.894Z,18.92
2022-08-01T05:59:02.941Z,18.94
2022-08-01T06:01:45.989Z,18.96
2022-08-01T06:04:29.170Z,18.98
2022-08-01T06:07:12.142Z,19.01
2022-08-01T06:09:55.145Z,19.03
2022-08-01T06:12:39.652Z,19.06
2022-08-01T06:15:22.712Z,19.07
2022-08-01T06:18:05.998Z,19.09
2022-08-01T06:20:49.153Z,19.11
2022-08-01T06:23:33.061Z,19.12
2022-08-01T06:26:16.128Z,19.16
2022-08-01T06:29:00.504Z,19.18
2022-08-01T06:31:43.514Z,19.22
2022-08-01T06:34:26.642Z,19.26
2022-08-01T06:37:09.826Z,19.30
2022-08-01T06:39:53.440Z,19.35
2022-08-01T06:42:37.407Z,19.38
2022-08-01T06:45:23.375Z,19.42
2022-08-01T06:48:06.871Z,19.46
2022-08-01T06:50:49.914Z,19.49
2022-08-01T06:53:36.583Z,19.52
2022-08-01T06:56:19.783Z,19.57
2022-08-01T06:59:02.937Z,19.62
2022-08-01T07:01:47.409Z,19.68
2022-08-01T07:04:30.609Z,19.72
2022-08-01T07:07:13.671Z,19.77
2022-08-01T07:09:56.755Z,19.80
2022-08-01T07:12:41.434Z,19.85
2022-08-01T07:15:27.577Z,19.93
2022-08-01T07:18:12.058Z,20.00
2022-08-01T07:20:55.143Z,20.07
2022-08-01T07:23:40.047Z,20.12
2022-08-01T07:26:29.353Z,20.15
2022-08-01T07:29:12.460Z,20.21
2022-08-01T07:31:57.043Z,20.29
2022-08-01T07:34:41.723Z,20.34
2022-08-01T07:37:48.359Z,20.38
2022-08-01T07:40:28.080Z,20.48
2022-08-01T07:43:11.367Z,20.56
2022-08-01T07:46:08.948Z,20.68
2022-08-01T07:49:03.334Z,20.78
2022-08-01T07:52:03.185Z,20.88
2022-08-01T07:54:52.029Z,21.01
2022-08-01T07:57:35.326Z,21.12
2022-08-01T08:00:19.221Z,21.20
2022-08-01T08:03:02.227Z,21.30
2022-08-01T08:05:58.188Z,21.39
2022-08-01T08:08:44.343Z,21.48
2022-08-01T08:11:27.447Z,21.55
2022-08-01T08:14:13.610Z,21.62
2022-08-01T08:16:57.913Z,21.69
2022-08-01T08:19:41.036Z,21.78
2022-08-01T08:22:24.101Z,21.84
2022-08-01T08:25:09.888Z,21.92
2022-08-01T08:27:55.094Z,21.95
2022-08-01T08:30:38.083Z,22.02
2022-08-01T08:33:21.123Z,22.11
2022-08-01T08:36:04.180Z,22.20
2022-08-01T08:38:47.203Z,22.28
2022-08-01T08:41:37.108Z,22.34
2022-08-01T08:44:22.142Z,22.41
2022-08-01T08:47:09.227Z,22.50
2022-08-01T08:49:55.291Z,22.65
2022-08-01T08:52:41.115Z,22.75
2022-08-01T08:55:25.202Z,22.81
2022-08-01T08:58:14.337Z,22.84
2022-08-01T09:00:57.594Z,22.84
2022-08-01T09:03:41.669Z,22.87
2022-08-01T09:06:24.843Z,22.89
2022-08-01T09:09:12.176Z,22.91
2022-08-01T09:11:58.096Z,22.94
2022-08-01T09:14:48.753Z,22.98
2022-08-01T09:17:41.806Z,22.96
2022-08-01T09:20:25.952Z,22.90
2022-08-01T09:23:32.691Z,22.87
2022-08-01T09:26:18.727Z,22.81
2022-08-01T09:29:07.353Z,22.75
2022-08-01T09:31:56.244Z,22.79
2022-08-01T09:34:39.401Z,23.03
2022-08-01T09:37:37.299Z,23.20
2022-08-01T09:40:20.834Z,23.18
2022-08-01T09:43:12.971Z,23.11
2022-08-01T09:45:58.733Z,23.05
2022-08-01T09:48:57.483Z,22.97
2022-08-01T09:51:59.029Z,22.86
2022-08-01T09:54:55.642Z,22.73
2022-08-01T09:57:39.686Z,22.66
2022-08-01T10:00:44.265Z,22.55
2022-08-01T10:03:27.636Z,22.37
2022-08-01T10:06:24.712Z,22.16
2022-08-01T10:09:08.198Z,22.09
2022-08-01T10:11:51.368Z,22.23
2022-08-01T10:14:35.052Z,22.33
2022-08-01T10:17:19.926Z,22.50
2022-08-01T10:20:04.983Z,22.55
2022-08-01T10:23:06.831Z,22.49
2022-08-01T10:25:50.978Z,22.42
2022-08-01T10:28:41.125Z,22.33
2022-08-01T10:31:30.837Z,22.21
2022-08-01T10:34:16.257Z,22.12
2022-08-01T10:36:59.565Z,22.13
2022-08-01T10:39:46.853Z,22.26
2022-08-01T10:42:30.124Z,22.40
2022-08-01T10:45:15.884Z,22.52
2022-08-01T10:48:08.105Z,22.65
2022-08-01T10:50:54.982Z,22.82
2022-08-01T10:53:42.802Z,22.98
2022-08-01T10:56:41.254Z,23.04
2022-08-01T10:59:50.260Z,23.08
2022-08-01T11:02:34.582Z,23.04
2022-08-01T11:05:24.132Z,23.04
2022-08-01T11:08:12.005Z,23.08
2022-08-01T11:11:03.303Z,23.13
2022-08-01T11:14:10.609Z,23.14
2022-08-01T11:16:55.341Z,23.17
2022-08-01T11:20:05.972Z,23.16
2022-08-01T11:23:17.746Z,23.17
2022-08-01T11:26:29.326Z,23.15
2022-08-01T11:29:21.609Z,23.13
2022-08-01T11:32:26.458Z,23.11
2022-08-01T11:35:09.507Z,23.11
2022-08-01T11:37:53.562Z,23.11
2022-08-01T11:40:37.784Z,23.08
2022-08-01T11:43:20.893Z,23.12
2022-08-01T11:46:05.816Z,23.36
2022-08-01T11:49:28.949Z,23.69
2022-08-01T11:52:15.574Z,24.00
2022-08-01T11:55:10.146Z,24.38
2022-08-01T11:58:01.461Z,24.72
2022-08-01T12:00:52.709Z,24.86
2022-08-01T12:03:37.121Z,24.93
2022-08-01T12:06:29.426Z,24.90
2022-08-01T12:09:20.866Z,24.83
2022-08-01T12:12:03.997Z,25.11
2022-08-01T12:14:55.805Z,25.61
2022-08-01T12:17:40.561Z,25.96
2022-08-01T12:20:32.699Z,26.00
2022-08-01T12:23:17.366Z,26.12
2022-08-01T12:26:01.181Z,26.38
2022-08-01T12:28:44.173Z,26.80
2022-08-01T12:31:35.059Z,27.25
2022-08-01T12:34:28.881Z,27.59
2022-08-01T12:37:13.431Z,27.56
2022-08-01T12:39:56.305Z,27.62
2022-08-01T12:42:40.545Z,28.00
2022-08-01T12:45:25.900Z,28.41
2022-08-01T12:48:12.578Z,28.64
2022-08-01T12:50:59.086Z,28.58
2022-08-01T12:53:43.701Z,28.71
2022-08-01T12:56:32.984Z,28.95
2022-08-01T12:59:23.885Z,28.94
2022-08-01T13:02:12.136Z,28.98
2022-08-01T13:04:55.122Z,29.09
2022-08-01T13:07:45.701Z,29.26
2022-08-01T13:10:32.437Z,29.12
2022-08-01T13:13:28.108Z,29.04
2022-08-01T13:16:18.194Z,29.19
2022-08-01T13:19:16.200Z,29.54
2022-08-01T13:21:59.833Z,29.83
2022-08-01T13:24:42.862Z,30.06
2022-08-01T13:27:30.983Z,30.00
2022-08-01T13:30:16.388Z,29.92
2022-08-01T13:33:00.545Z,29.96
2022-08-01T13:35:43.591Z,30.12
2022-08-01T13:38:44.066Z,30.38
2022-08-01T13:41:27.485Z,30.55
2022-08-01T13:44:12.083Z,30.77
2022-08-01T13:46:56.967Z,31.06
2022-08-01T13:49:40.919Z,31.14
2022-08-01T13:52:24.089Z,31.10
2022-08-01T13:55:10.904Z,31.07
2022-08-01T13:57:54.147Z,31.17
2022-08-01T14:00:38.649Z,31.40
2022-08-01T14:03:21.686Z,31.50
2022-08-01T14:06:17.128Z,31.32
2022-08-01T14:09:01.171Z,30.89
2022-08-01T14:11:45.714Z,30.59
2022-08-01T14:14:29.222Z,30.71
2022-08-01T14:17:13.683Z,30.89
2022-08-01T14:20:00.364Z,30.93
2022-08-01T14:22:43.406Z,31.05
2022-08-01T14:26:00.560Z,31.16
2022-08-01T14:28:31.084Z,31.19
2022-08-01T14:31:14.130Z,30.96
2022-08-01T14:33:58.514Z,30.80
2022-08-01T14:36:41.392Z,30.60
2022-08-01T14:39:26.541Z,30.43
2022-08-01T14:42:10.193Z,30.52
2022-08-01T14:44:53.240Z,30.60
2022-08-01T14:47:37.055Z,30.74
2022-08-01T14:50:21.400Z,30.97
2022-08-01T14:53:04.268Z,31.24
2022-08-01T14:55:47.263Z,31.39
2022-08-01T14:58:30.429Z,30.98
2022-08-01T15:01:13.491Z,30.54
2022-08-01T15:03:56.935Z,30.27
2022-08-01T15:06:41.283Z,30.00
2022-08-01T15:09:25.300Z,29.76
2022-08-01T15:12:09.618Z,29.75
2022-08-01T15:14:52.887Z,29.69
2022-08-01T15:17:35.924Z,29.64
2022-08-01T15:20:18.963Z,29.64
2022-08-01T15:23:03.382Z,29.47
2022-08-01T15:25:46.258Z,29.29
2022-08-01T15:28:29.294Z,29.23
2022-08-01T15:31:14.278Z,29.12
2022-08-01T15:33:57.463Z,29.10
2022-08-01T15:36:41.942Z,29.03
2022-08-01T15:39:27.902Z,28.97
2022-08-01T15:42:11.695Z,28.80
2022-08-01T15:44:54.704Z,28.66
2022-08-01T15:47:37.817Z,28.49
2022-08-01T15:50:20.948Z,28.38
2022-08-01T15:53:03.986Z,28.26
2022-08-01T15:55:52.267Z,28.18
2022-08-01T15:58:36.073Z,28.11
2022-08-01T16:01:19.185Z,28.02
2022-08-01T16:04:02.762Z,27.97
2022-08-01T16:06:45.863Z,27.92
2022-08-01T16:09:28.952Z,27.82
2022-08-01T16:12:14.132Z,27.72
2022-08-01T16:14:57.611Z,27.50
2022-08-01T16:17:42.139Z,27.30
2022-08-01T16:20:27.982Z,27.18
2022-08-01T16:23:11.154Z,27.10
2022-08-01T16:25:54.710Z,27.05
2022-08-01T16:28:39.341Z,27.05
2022-08-01T16:31:33.599Z,26.96
2022-08-01T16:34:25.384Z,26.89
2022-08-01T16:37:08.388Z,26.78
2022-08-01T16:39:51.581Z,26.68
2022-08-01T16:42:34.681Z,26.62
2022-08-01T16:45:21.196Z,26.48
2022-08-01T16:48:04.463Z,26.42
2022-08-01T16:50:49.402Z,26.34
2022-08-01T16:53:32.399Z,26.16
2022-08-01T16:56:15.449Z,25.98
2022-08-01T16:58:58.467Z,25.88
2022-08-01T17:02:03.375Z,25.77
2022-08-01T17:04:45.831Z,25.71
2022-08-01T17:07:29.029Z,25.65
2022-08-01T17:10:12.431Z,25.60
2022-08-01T17:12:55.481Z,25.56
2022-08-01T17:15:40.074Z,25.43
2022-08-01T17:18:24.294Z,25.31
2022-08-01T17:21:07.509Z,25.22
2022-08-01T17:23:50.719Z,25.11
2022-08-01T17:26:33.872Z,25.06
2022-08-01T17:29:17.780Z,24.96
2022-08-01T17:32:00.906Z,24.91
2022-08-01T17:34:45.349Z,24.85
2022-08-01T17:37:28.443Z,24.82
2022-08-01T17:40:38.536Z,24.79
2022-08-01T17:43:15.796Z,24.72
2022-08-01T17:45:58.869Z,24.63
2022-08-01T17:48:41.897Z,24.56
2022-08-01T17:51:26.434Z,24.49
2022-08-01T17:54:09.890Z,24.38
2022-08-01T17:56:54.021Z,24.26
2022-08-01T17:59:37.131Z,24.12
2022-08-01T18:02:20.782Z,24.03
2022-08-01T18:05:09.492Z,23.93
2022-08-01T18:08:00.900Z,23.85
2022-08-01T18:10:45.206Z,23.82
2022-08-01T18:13:29.200Z,23.80
2022-08-01T18:16:13.521Z,23.79
2022-08-01T18:18:57.673Z,23.77
2022-08-01T18:21:43.182Z,23.71
2022-08-01T18:24:27.679Z,23.66
2022-08-01T18:27:10.665Z,23.64
2022-08-01T18:29:53.712Z,23.60
2022-08-01T18:32:49.096Z,23.54
2022-08-01T18:35:52.628Z,23.50
2022-08-01T18:38:40.514Z,23.46
2022-08-01T18:41:28.844Z,23.46
2022-08-01T18:44:12.510Z,23.40
2022-08-01T18:46:55.487Z,23.35
2022-08-01T18:49:38.532Z,23.29
2022-08-01T18:52:21.582Z,23.23
2022-08-01T18:55:11.635Z,23.17
2022-08-01T18:57:55.995Z,23.11
2022-08-01T19:00:39.887Z,23.05
2022-08-01T19:03:22.960Z,23.00
2022-08-01T19:06:06.387Z,22.97
2022-08-01T19:08:49.438Z,22.92
2022-08-01T19:11:33.720Z,22.85
2022-08-01T19:14:18.097Z,22.76
2022-08-01T19:17:01.153Z,22.70
2022-08-01T19:19:44.160Z,22.68
2022-08-01T19:22:27.220Z,22.64
2022-08-01T19:25:11.209Z,22.60
2022-08-01T19:27:58.452Z,22.54
2022-08-01T19:30:42.870Z,22.46
2022-08-01T19:33:40.136Z,22.41
2022-08-01T19:36:23.566Z,22.36
2022-08-01T19:39:10.099Z,22.33
2022-08-01T19:41:53.703Z,22.26
2022-08-01T19:44:38.340Z,22.19
2022-08-01T19:47:22.918Z,22.10
2022-08-01T19:50:08.037Z,22.01
2022-08-01T19:52:52.938Z,21.90
2022-08-01T19:55:39.754Z,21.80
2022-08-01T19:58:27.415Z,21.59
2022-08-01T20:01:14.352Z,21.31
2022-08-01T20:04:04.579Z,21.03
2022-08-01T20:06:48.238Z,20.72
2022-08-01T20:09:33.484Z,20.47
2022-08-01T20:12:16.629Z,20.34
2022-08-01T20:15:01.151Z,20.34
2022-08-01T20:17:45.533Z,20.27
2022-08-01T20:20:30.023Z,20.06
2022-08-01T20:23:18.289Z,19.87
2022-08-01T20:26:02.176Z,19.81
2022-08-01T20:28:48.437Z,19.77
2022-08-01T20:31:33.961Z,19.71
2022-08-01T20:34:27.515Z,19.56
2022-08-01T20:37:12.891Z,19.38
2022-08-01T20:40:00.167Z,19.24
2022-08-01T20:42:45.567Z,19.20
2022-08-01T20:45:28.669Z,19.19
2022-08-01T20:48:12.759Z,19.17
2022-08-01T20:51:13.793Z,19.17
2022-08-01T20:53:58.716Z,19.07
2022-08-01T20:56:52.401Z,19.02
2022-08-01T20:59:56.696Z,19.00
2022-08-01T21:02:51.606Z,18.98
2022-08-01T21:05:38.839Z,19.00
2022-08-01T21:08:31.066Z,19.03
2022-08-01T21:11:21.365Z,18.93
2022-08-01T21:14:07.020Z,18.90
2022-08-01T21:17:02.432Z,18.95
2022-08-01T21:19:47.302Z,18.96
2022-08-01T21:22:37.058Z,19.02
2022-08-01T21:25:27.016Z,19.06
2022-08-01T21:28:13.667Z,19.12
2022-08-01T21:30:57.662Z,19.16
2022-08-01T21:34:01.991Z,19.21
2022-08-01T21:36:46.863Z,19.26
2022-08-01T21:39:30.119Z,19.27
2022-08-01T21:42:18.666Z,19.30
2022-08-01T21:45:04.160Z,19.30
2022-08-01T21:47:49.734Z,19.28
2022-08-01T21:50:42.505Z,19.25
2022-08-01T21:53:38.785Z,19.18
2022-08-01T21:56:35.921Z,19.06
2022-08-01T21:59:24.916Z,18.97
2022-08-01T22:02:12.610Z,18.85
2022-08-01T22:05:01.811Z,18.85
2022-08-01T22:07:48.310Z,18.86
2022-08-01T22:10:32.146Z,18.86
2022-08-01T22:13:15.151Z,18.81
2022-08-01T22:15:59.054Z,18.68
2022-08-01T22:18:43.787Z,18.62
2022-08-01T22:21:27.874Z,18.64
2022-08-01T22:24:10.868Z,18.69
2022-08-01T22:26:56.329Z,18.73
2022-08-01T22:29:39.382Z,18.79
2022-08-01T22:32:23.798Z,18.83
2022-08-01T22:35:10.157Z,18.81
2022-08-01T22:37:57.237Z,18.76
2022-08-01T22:40:46.363Z,18.69
2022-08-01T22:43:33.958Z,18.60
2022-08-01T22:46:24.958Z,18.53
2022-08-01T22:49:20.312Z,18.49
2022-08-01T22:52:12.964Z,18.50
2022-08-01T22:55:06.934Z,18.52
2022-08-01T22:57:54.841Z,18.58
2022-08-01T23:00:39.991Z,18.61
2022-08-01T23:03:27.986Z,18.64
2022-08-01T23:06:15.906Z,18.68
2022-08-01T23:09:01.363Z,18.75
2022-08-01T23:11:45.585Z,18.81
2022-08-01T23:14:29.551Z,18.88
2022-08-01T23:17:26.832Z,18.92
2022-08-01T23:20:12.575Z,18.99
2022-08-01T23:22:56.964Z,19.03
2022-08-01T23:25:42.081Z,19.07
2022-08-01T23:28:26.838Z,19.09
2022-08-01T23:31:10.561Z,19.13
2022-08-01T23:33:53.559Z,19.16
2022-08-01T23:36:36.598Z,19.17
2022-08-01T23:39:19.696Z,19.19
2022-08-01T23:42:07.456Z,19.20
2022-08-01T23:44:51.381Z,19.20
2022-08-01T23:47:34.515Z,19.19
2022-08-01T23:50:17.550Z,19.19
2022-08-01T23:53:00.737Z,19.19
2022-08-01T23:55:44.371Z,19.19
2022-08-01T23:58:28.974Z,19.18
